sensor_id;sensor_type;location;lat;lon;timestamp;pressure;altitude;pressure_sealevel;temperature;humidity
38718;BME280;24468;52.128;9.278;2022-09-21T00:01:11;101723.19;;;8.41;100.00
38718;BME280;24468;52.128;9.278;2022-09-21T00:03:38;101715.06;;;8.44;100.00
38718;BME280;24468;52.128;9.278;2022-09-21T00:06:09;101716.03;;;8.40;100.00
38718;BME280;24468;52.128;9.278;2022-09-21T00:08:35;101724.09;;;8.39;100.00
38718;BME280;24468;52.128;9.278;2022-09-21T00:11:01;101706.19;;;8.39;100.00
38718;BME280;24468;52.128;9.278;2022-09-21T00:13:30;101720.47;;;8.41;100.00
38718;BME280;24468;52.128;9.278;2022-09-21T00:15:57;101714.03;;;8.52;100.00
38718;BME280;24468;52.128;9.278;2022-09-21T00:18:23;101723.84;;;8.56;100.00
38718;BME280;24468;52.128;9.278;2022-09-21T00:20:49;101715.72;;;8.59;100.00
38718;BME280;24468;52.128;9.278;2022-09-21T00:23:16;101721.13;;;8.57;100.00
38718;BME280;24468;52.128;9.278;2022-09-21T00:25:42;101720.13;;;8.64;100.00
38718;BME280;24468;52.128;9.278;2022-09-21T00:28:07;101718.31;;;8.65;100.00
38718;BME280;24468;52.128;9.278;2022-09-21T00:30:33;101716.47;;;8.67;100.00
38718;BME280;24468;52.128;9.278;2022-09-21T00:32:59;101725.25;;;8.77;100.00
38718;BME280;24468;52.128;9.278;2022-09-21T00:35:24;101728.88;;;8.74;100.00
38718;BME280;24468;52.128;9.278;2022-09-21T00:37:50;101726.25;;;8.73;100.00
38718;BME280;24468;52.128;9.278;2022-09-21T00:40:15;101728.88;;;8.74;100.00
38718;BME280;24468;52.128;9.278;2022-09-21T00:42:41;101724.50;;;8.70;100.00
38718;BME280;24468;52.128;9.278;2022-09-21T00:45:11;101728.31;;;8.57;100.00
38718;BME280;24468;52.128;9.278;2022-09-21T00:47:50;101722.81;;;8.63;100.00
38718;BME280;24468;52.128;9.278;2022-09-21T00:50:23;101722.75;;;8.66;100.00
38718;BME280;24468;52.128;9.278;2022-09-21T00:52:54;101722.81;;;8.64;100.00
38718;BME280;24468;52.128;9.278;2022-09-21T00:55:35;101721.94;;;8.61;100.00
38718;BME280;24468;52.128;9.278;2022-09-21T00:58:07;101729.31;;;8.50;100.00
38718;BME280;24468;52.128;9.278;2022-09-21T01:00:37;101734.63;;;8.56;100.00
38718;BME280;24468;52.128;9.278;2022-09-21T01:03:05;101728.53;;;8.43;100.00
38718;BME280;24468;52.128;9.278;2022-09-21T01:05:31;101738.91;;;8.66;100.00
38718;BME280;24468;52.128;9.278;2022-09-21T01:07:59;101730.94;;;8.58;100.00
38718;BME280;24468;52.128;9.278;2022-09-21T01:10:40;101739.94;;;8.59;100.00
38718;BME280;24468;52.128;9.278;2022-09-21T01:16:27;101734.31;;;8.71;100.00
38718;BME280;24468;52.128;9.278;2022-09-21T01:22:33;101746.38;;;8.49;100.00
38718;BME280;24468;52.128;9.278;2022-09-21T01:25:10;101757.91;;;8.57;100.00
38718;BME280;24468;52.128;9.278;2022-09-21T01:28:05;101755.16;;;8.60;100.00
38718;BME280;24468;52.128;9.278;2022-09-21T01:30:36;101748.84;;;8.61;100.00
38718;BME280;24468;52.128;9.278;2022-09-21T01:33:21;101748.59;;;8.76;100.00
38718;BME280;24468;52.128;9.278;2022-09-21T01:35:53;101751.84;;;8.94;100.00
38718;BME280;24468;52.128;9.278;2022-09-21T01:38:27;101751.22;;;8.81;100.00
38718;BME280;24468;52.128;9.278;2022-09-21T01:40:59;101751.16;;;8.82;100.00
38718;BME280;24468;52.128;9.278;2022-09-21T01:43:33;101755.59;;;8.86;100.00
38718;BME280;24468;52.128;9.278;2022-09-21T01:46:00;101751.97;;;8.89;100.00
38718;BME280;24468;52.128;9.278;2022-09-21T01:48:32;101753.66;;;8.93;100.00
38718;BME280;24468;52.128;9.278;2022-09-21T01:51:02;101741.94;;;8.97;100.00
38718;BME280;24468;52.128;9.278;2022-09-21T01:53:38;101751.50;;;8.64;100.00
38718;BME280;24468;52.128;9.278;2022-09-21T01:56:24;101757.84;;;8.61;100.00
38718;BME280;24468;52.128;9.278;2022-09-21T01:59:16;101755.97;;;8.65;100.00
38718;BME280;24468;52.128;9.278;2022-09-21T02:01:57;101761.19;;;8.74;100.00
38718;BME280;24468;52.128;9.278;2022-09-21T02:04:24;101757.28;;;8.92;100.00
38718;BME280;24468;52.128;9.278;2022-09-21T02:06:51;101758.16;;;8.93;100.00
38718;BME280;24468;52.128;9.278;2022-09-21T02:09:18;101758.97;;;8.98;100.00
38718;BME280;24468;52.128;9.278;2022-09-21T02:11:44;101761.50;;;9.07;100.00
38718;BME280;24468;52.128;9.278;2022-09-21T02:14:14;101765.97;;;9.08;100.00
38718;BME280;24468;52.128;9.278;2022-09-21T02:20:21;101755.03;;;9.17;100.00
38718;BME280;24468;52.128;9.278;2022-09-21T02:23:32;101756.09;;;9.08;100.00
38718;BME280;24468;52.128;9.278;2022-09-21T02:26:28;101756.16;;;9.05;100.00
38718;BME280;24468;52.128;9.278;2022-09-21T02:29:15;101755.66;;;8.83;100.00
38718;BME280;24468;52.128;9.278;2022-09-21T02:32:02;101756.75;;;8.72;100.00
38718;BME280;24468;52.128;9.278;2022-09-21T02:34:51;101766.66;;;8.70;100.00
38718;BME280;24468;52.128;9.278;2022-09-21T02:45:45;101757.72;;;8.67;100.00
38718;BME280;24468;52.128;9.278;2022-09-21T02:48:19;101752.41;;;8.64;100.00
38718;BME280;24468;52.128;9.278;2022-09-21T02:50:54;101768.81;;;8.48;100.00
38718;BME280;24468;52.128;9.278;2022-09-21T02:53:26;101760.75;;;8.46;100.00
38718;BME280;24468;52.128;9.278;2022-09-21T02:55:58;101758.91;;;8.50;100.00
38718;BME280;24468;52.128;9.278;2022-09-21T02:58:28;101758.72;;;8.62;100.00
38718;BME280;24468;52.128;9.278;2022-09-21T03:00:56;101749.66;;;8.67;100.00
38718;BME280;24468;52.128;9.278;2022-09-21T03:03:23;101757.53;;;8.78;100.00
38718;BME280;24468;52.128;9.278;2022-09-21T03:05:53;101756.59;;;8.79;100.00
38718;BME280;24468;52.128;9.278;2022-09-21T03:08:20;101756.38;;;8.93;100.00
38718;BME280;24468;52.128;9.278;2022-09-21T03:10:45;101758.91;;;9.01;100.00
38718;BME280;24468;52.128;9.278;2022-09-21T03:13:12;101757.91;;;9.08;100.00
38718;BME280;24468;52.128;9.278;2022-09-21T03:15:39;101755.09;;;9.12;100.00
38718;BME280;24468;52.128;9.278;2022-09-21T03:18:07;101763.19;;;9.12;100.00
38718;BME280;24468;52.128;9.278;2022-09-21T03:20:37;101760.41;;;9.17;100.00
38718;BME280;24468;52.128;9.278;2022-09-21T03:23:03;101762.22;;;9.17;100.00
38718;BME280;24468;52.128;9.278;2022-09-21T03:25:30;101757.03;;;9.06;100.00
38718;BME280;24468;52.128;9.278;2022-09-21T03:27:56;101767.25;;;8.85;100.00
38718;BME280;24468;52.128;9.278;2022-09-21T03:30:24;101779.97;;;8.77;100.00
38718;BME280;24468;52.128;9.278;2022-09-21T03:32:51;101780.00;;;8.74;100.00
38718;BME280;24468;52.128;9.278;2022-09-21T03:35:22;101773.31;;;8.98;100.00
38718;BME280;24468;52.128;9.278;2022-09-21T03:37:49;101774.06;;;9.08;100.00
38718;BME280;24468;52.128;9.278;2022-09-21T03:40:15;101772.50;;;8.93;100.00
38718;BME280;24468;52.128;9.278;2022-09-21T03:42:42;101771.31;;;9.11;100.00
38718;BME280;24468;52.128;9.278;2022-09-21T03:45:09;101776.63;;;9.14;100.00
38718;BME280;24468;52.128;9.278;2022-09-21T03:47:36;101772.94;;;9.18;100.00
38718;BME280;24468;52.128;9.278;2022-09-21T03:50:04;101773.88;;;9.16;100.00
38718;BME280;24468;52.128;9.278;2022-09-21T03:52:30;101770.56;;;9.03;100.00
38718;BME280;24468;52.128;9.278;2022-09-21T03:54:55;101775.81;;;9.07;100.00
38718;BME280;24468;52.128;9.278;2022-09-21T03:57:21;101774.06;;;9.08;100.00
38718;BME280;24468;52.128;9.278;2022-09-21T03:59:46;101777.00;;;8.93;100.00
38718;BME280;24468;52.128;9.278;2022-09-21T04:02:12;101774.38;;;8.89;100.00
38718;BME280;24468;52.128;9.278;2022-09-21T04:04:38;101777.94;;;8.90;100.00
38718;BME280;24468;52.128;9.278;2022-09-21T04:07:03;101773.25;;;9.03;100.00
38718;BME280;24468;52.128;9.278;2022-09-21T04:09:29;101776.03;;;8.97;100.00
38718;BME280;24468;52.128;9.278;2022-09-21T04:11:55;101776.13;;;8.92;100.00
38718;BME280;24468;52.128;9.278;2022-09-21T04:14:21;101784.22;;;8.90;100.00
38718;BME280;24468;52.128;9.278;2022-09-21T04:16:47;101784.50;;;8.75;100.00
38718;BME280;24468;52.128;9.278;2022-09-21T04:19:14;101776.59;;;8.64;100.00
38718;BME280;24468;52.128;9.278;2022-09-21T04:21:40;101779.81;;;8.85;100.00
38718;BME280;24468;52.128;9.278;2022-09-21T04:24:06;101777.75;;;9.02;100.00
38718;BME280;24468;52.128;9.278;2022-09-21T04:26:33;101767.88;;;9.03;100.00
38718;BME280;24468;52.128;9.278;2022-09-21T04:28:59;101776.13;;;8.92;100.00
38718;BME280;24468;52.128;9.278;2022-09-21T04:31:27;101778.44;;;9.13;100.00
38718;BME280;24468;52.128;9.278;2022-09-21T04:33:55;101776.94;;;8.96;100.00
38718;BME280;24468;52.128;9.278;2022-09-21T04:36:23;101778.44;;;9.12;100.00
38718;BME280;24468;52.128;9.278;2022-09-21T04:38:49;101785.56;;;8.65;100.00
38718;BME280;24468;52.128;9.278;2022-09-21T04:41:16;101784.22;;;8.90;100.00
38718;BME280;24468;52.128;9.278;2022-09-21T04:43:46;101787.53;;;9.05;100.00
38718;BME280;24468;52.128;9.278;2022-09-21T04:46:18;101782.06;;;9.11;100.00
38718;BME280;24468;52.128;9.278;2022-09-21T04:48:45;101784.84;;;9.06;100.00
38718;BME280;24468;52.128;9.278;2022-09-21T04:51:13;101785.66;;;9.10;100.00
38718;BME280;24468;52.128;9.278;2022-09-21T04:53:40;101791.91;;;9.13;100.00
38718;BME280;24468;52.128;9.278;2022-09-21T04:56:07;101792.22;;;8.95;100.00
38718;BME280;24468;52.128;9.278;2022-09-21T04:58:33;101802.69;;;8.59;100.00
38718;BME280;24468;52.128;9.278;2022-09-21T05:00:58;101805.25;;;8.67;100.00
38718;BME280;24468;52.128;9.278;2022-09-21T05:03:25;101813.13;;;8.79;100.00
38718;BME280;24468;52.128;9.278;2022-09-21T05:05:54;101814.53;;;8.46;100.00
38718;BME280;24468;52.128;9.278;2022-09-21T05:08:22;101811.41;;;8.75;100.00
38718;BME280;24468;52.128;9.278;2022-09-21T05:11:13;101812.34;;;8.73;100.00
38718;BME280;24468;52.128;9.278;2022-09-21T05:13:40;101817.59;;;8.80;100.00
38718;BME280;24468;52.128;9.278;2022-09-21T05:16:06;101823.69;;;8.92;100.00
38718;BME280;24468;52.128;9.278;2022-09-21T05:18:32;101815.63;;;8.88;100.00
38718;BME280;24468;52.128;9.278;2022-09-21T05:20:59;101817.56;;;8.82;100.00
38718;BME280;24468;52.128;9.278;2022-09-21T05:23:26;101825.88;;;8.66;100.00
38718;BME280;24468;52.128;9.278;2022-09-21T05:25:54;101834.38;;;8.36;100.00
38718;BME280;24468;52.128;9.278;2022-09-21T05:28:21;101832.31;;;7.90;100.00
38718;BME280;24468;52.128;9.278;2022-09-21T05:31:35;101830.41;;;7.99;100.00
38718;BME280;24468;52.128;9.278;2022-09-21T05:34:05;101833.19;;;7.93;100.00
38718;BME280;24468;52.128;9.278;2022-09-21T05:39:15;101842.25;;;7.85;100.00
38718;BME280;24468;52.128;9.278;2022-09-21T05:41:41;101840.91;;;8.18;100.00
38718;BME280;24468;52.128;9.278;2022-09-21T05:44:11;101843.75;;;8.06;100.00
38718;BME280;24468;52.128;9.278;2022-09-21T05:46:50;101847.47;;;7.98;100.00
38718;BME280;24468;52.128;9.278;2022-09-21T05:49:25;101844.81;;;7.95;100.00
38718;BME280;24468;52.128;9.278;2022-09-21T05:52:23;101847.59;;;7.88;100.00
38718;BME280;24468;52.128;9.278;2022-09-21T05:58:03;101844.81;;;7.92;100.00
38718;BME280;24468;52.128;9.278;2022-09-21T06:03:30;101852.50;;;8.21;100.00
38718;BME280;24468;52.128;9.278;2022-09-21T06:05:56;101850.34;;;8.50;100.00
38718;BME280;24468;52.128;9.278;2022-09-21T06:08:24;101853.91;;;8.53;100.00
38718;BME280;24468;52.128;9.278;2022-09-21T06:10:50;101856.50;;;8.58;100.00
38718;BME280;24468;52.128;9.278;2022-09-21T06:13:16;101857.53;;;8.49;100.00
38718;BME280;24468;52.128;9.278;2022-09-21T06:15:41;101864.50;;;8.62;100.00
38718;BME280;24468;52.128;9.278;2022-09-21T06:18:08;101850.84;;;8.76;100.00
38718;BME280;24468;52.128;9.278;2022-09-21T06:20:34;101858.63;;;8.95;100.00
38718;BME280;24468;52.128;9.278;2022-09-21T06:23:12;101861.16;;;8.46;100.00
38718;BME280;24468;52.128;9.278;2022-09-21T06:25:37;101866.16;;;8.73;100.00
38718;BME280;24468;52.128;9.278;2022-09-21T06:28:06;101856.53;;;8.55;100.00
38718;BME280;24468;52.128;9.278;2022-09-21T06:30:32;101853.97;;;8.49;100.00
38718;BME280;24468;52.128;9.278;2022-09-21T06:33:04;101864.19;;;8.19;100.00
38718;BME280;24468;52.128;9.278;2022-09-21T06:35:31;101858.72;;;8.25;100.00
38718;BME280;24468;52.128;9.278;2022-09-21T06:38:03;101870.53;;;8.15;100.00
38718;BME280;24468;52.128;9.278;2022-09-21T06:40:32;101863.47;;;8.06;100.00
38718;BME280;24468;52.128;9.278;2022-09-21T06:43:00;101865.81;;;8.31;100.00
38718;BME280;24468;52.128;9.278;2022-09-21T06:45:28;101869.63;;;8.16;100.00
38718;BME280;24468;52.128;9.278;2022-09-21T06:47:54;101873.88;;;8.31;100.00
38718;BME280;24468;52.128;9.278;2022-09-21T06:50:21;101872.53;;;7.99;100.00
38718;BME280;24468;52.128;9.278;2022-09-21T06:52:46;101875.34;;;7.88;100.00
38718;BME280;24468;52.128;9.278;2022-09-21T06:55:13;101873.63;;;7.81;100.00
38718;BME280;24468;52.128;9.278;2022-09-21T06:57:39;101874.59;;;7.75;100.00
38718;BME280;24468;52.128;9.278;2022-09-21T07:00:08;101879.06;;;7.76;100.00
38718;BME280;24468;52.128;9.278;2022-09-21T07:02:34;101874.59;;;7.75;100.00
38718;BME280;24468;52.128;9.278;2022-09-21T07:05:00;101871.84;;;7.80;100.00
38718;BME280;24468;52.128;9.278;2022-09-21T07:07:28;101868.59;;;8.24;100.00
38718;BME280;24468;52.128;9.278;2022-09-21T07:09:57;101871.38;;;8.18;100.00
38718;BME280;24468;52.128;9.278;2022-09-21T07:12:28;101882.56;;;8.54;100.00
38718;BME280;24468;52.128;9.278;2022-09-21T07:14:54;101882.56;;;8.54;100.00
38718;BME280;24468;52.128;9.278;2022-09-21T07:17:19;101883.00;;;8.19;100.00
38718;BME280;24468;52.128;9.278;2022-09-21T07:19:46;101877.91;;;7.97;100.00
38718;BME280;24468;52.128;9.278;2022-09-21T07:22:11;101887.84;;;7.91;100.00
38718;BME280;24468;52.128;9.278;2022-09-21T07:24:37;101884.16;;;7.98;100.00
38718;BME280;24468;52.128;9.278;2022-09-21T07:27:02;101885.25;;;8.54;100.00
38718;BME280;24468;52.128;9.278;2022-09-21T07:29:29;101891.81;;;8.30;100.00
38718;BME280;24468;52.128;9.278;2022-09-21T07:31:55;101891.91;;;8.26;100.00
38718;BME280;24468;52.128;9.278;2022-09-21T07:34:20;101889.28;;;8.21;100.00
38718;BME280;24468;52.128;9.278;2022-09-21T07:36:46;101896.53;;;8.13;100.00
38718;BME280;24468;52.128;9.278;2022-09-21T07:39:11;101894.31;;;8.49;100.00
38718;BME280;24468;52.128;9.278;2022-09-21T07:41:37;101888.56;;;8.73;100.00
38718;BME280;24468;52.128;9.278;2022-09-21T07:44:03;101893.56;;;8.34;100.00
38718;BME280;24468;52.128;9.278;2022-09-21T07:46:28;101889.91;;;8.38;100.00
38718;BME280;24468;52.128;9.278;2022-09-21T07:48:55;101900.19;;;8.75;100.00
38718;BME280;24468;52.128;9.278;2022-09-21T07:51:23;101889.06;;;9.00;100.00
38718;BME280;24468;52.128;9.278;2022-09-21T07:53:56;101893.81;;;9.35;100.00
38718;BME280;24468;52.128;9.278;2022-09-21T07:56:22;101891.09;;;9.37;100.00
38718;BME280;24468;52.128;9.278;2022-09-21T07:58:48;101889.84;;;9.56;100.00
38718;BME280;24468;52.128;9.278;2022-09-21T08:04:02;101880.91;;;9.54;100.00
38718;BME280;24468;52.128;9.278;2022-09-21T08:06:30;101882.16;;;9.81;100.00
38718;BME280;24468;52.128;9.278;2022-09-21T08:09:01;101879.91;;;10.05;100.00
38718;BME280;24468;52.128;9.278;2022-09-21T08:11:29;101885.16;;;10.11;100.00
38718;BME280;24468;52.128;9.278;2022-09-21T08:14:00;101880.25;;;9.88;100.00
38718;BME280;24468;52.128;9.278;2022-09-21T08:16:28;101881.56;;;9.67;100.00
38718;BME280;24468;52.128;9.278;2022-09-21T08:18:54;101878.31;;;9.94;100.00
38718;BME280;24468;52.128;9.278;2022-09-21T08:21:20;101881.09;;;10.35;100.00
38718;BME280;24468;52.128;9.278;2022-09-21T08:23:47;101883.78;;;10.35;100.00
38718;BME280;24468;52.128;9.278;2022-09-21T08:26:17;101890.19;;;9.86;100.00
38718;BME280;24468;52.128;9.278;2022-09-21T08:28:49;101882.44;;;9.69;100.00
38718;BME280;24468;52.128;9.278;2022-09-21T08:31:18;101880.25;;;9.88;100.00
38718;BME280;24468;52.128;9.278;2022-09-21T08:33:45;101885.03;;;10.17;100.00
38718;BME280;24468;52.128;9.278;2022-09-21T08:36:11;101879.75;;;10.12;100.00
38718;BME280;24468;52.128;9.278;2022-09-21T08:38:38;101877.09;;;10.11;100.00
38718;BME280;24468;52.128;9.278;2022-09-21T08:44:17;101889.69;;;10.09;100.00
38718;BME280;24468;52.128;9.278;2022-09-21T08:46:57;101887.84;;;10.54;100.00
38718;BME280;24468;52.128;9.278;2022-09-21T08:49:26;101881.19;;;10.71;100.00
38718;BME280;24468;52.128;9.278;2022-09-21T08:52:03;101878.41;;;10.74;100.00
38718;BME280;24468;52.128;9.278;2022-09-21T08:54:55;101885.94;;;10.97;100.00
38718;BME280;24468;52.128;9.278;2022-09-21T08:57:28;101875.63;;;11.14;100.00
38718;BME280;24468;52.128;9.278;2022-09-21T08:59:54;101882.94;;;11.09;100.00
38718;BME280;24468;52.128;9.278;2022-09-21T09:06:00;101879.53;;;10.63;100.00
38718;BME280;24468;52.128;9.278;2022-09-21T09:08:59;101874.25;;;11.32;100.00
38718;BME280;24468;52.128;9.278;2022-09-21T09:20:56;101873.75;;;11.83;100.00
38718;BME280;24468;52.128;9.278;2022-09-21T09:23:36;101870.50;;;12.03;100.00
38718;BME280;24468;52.128;9.278;2022-09-21T09:26:10;101867.28;;;11.90;100.00
38718;BME280;24468;52.128;9.278;2022-09-21T09:29:07;101871.34;;;11.40;100.00
38718;BME280;24468;52.128;9.278;2022-09-21T09:31:36;101870.28;;;11.78;100.00
38718;BME280;24468;52.128;9.278;2022-09-21T09:34:14;101872.94;;;12.42;100.00
38718;BME280;24468;52.128;9.278;2022-09-21T09:36:46;101876.25;;;12.80;100.00
38718;BME280;24468;52.128;9.278;2022-09-21T09:39:14;101863.56;;;12.54;100.00
38718;BME280;24468;52.128;9.278;2022-09-21T09:44:43;101879.88;;;13.07;100.00
38718;BME280;24468;52.128;9.278;2022-09-21T09:47:38;101859.75;;;13.42;100.00
38718;BME280;24468;52.128;9.278;2022-09-21T09:52:48;101864.13;;;13.71;100.00
38718;BME280;24468;52.128;9.278;2022-09-21T09:55:22;101860.31;;;13.77;100.00
38718;BME280;24468;52.128;9.278;2022-09-21T09:57:48;101858.88;;;13.67;100.00
38718;BME280;24468;52.128;9.278;2022-09-21T10:00:18;101870.53;;;13.17;100.00
38718;BME280;24468;52.128;9.278;2022-09-21T10:07:53;101862.50;;;14.14;100.00
38718;BME280;24468;52.128;9.278;2022-09-21T10:13:10;101859.41;;;13.76;100.00
38718;BME280;24468;52.128;9.278;2022-09-21T10:18:28;101848.31;;;14.55;100.00
38718;BME280;24468;52.128;9.278;2022-09-21T10:21:04;101849.44;;;14.71;100.00
38718;BME280;24468;52.128;9.278;2022-09-21T10:23:31;101845.69;;;14.52;100.00
38718;BME280;24468;52.128;9.278;2022-09-21T10:26:08;101846.28;;;14.60;100.00
38718;BME280;24468;52.128;9.278;2022-09-21T10:28:35;101840.78;;;14.61;100.00
38718;BME280;24468;52.128;9.278;2022-09-21T10:31:18;101847.22;;;14.59;100.00
38718;BME280;24468;52.128;9.278;2022-09-21T10:36:34;101840.34;;;15.57;100.00
38718;BME280;24468;52.128;9.278;2022-09-21T10:39:26;101835.16;;;15.92;100.00
38718;BME280;24468;52.128;9.278;2022-09-21T10:42:01;101827.59;;;15.57;100.00
38718;BME280;24468;52.128;9.278;2022-09-21T10:44:43;101823.03;;;15.80;100.00
38718;BME280;24468;52.128;9.278;2022-09-21T10:47:33;101828.09;;;15.06;100.00
38718;BME280;24468;52.128;9.278;2022-09-21T10:50:03;101819.88;;;15.48;100.00
38718;BME280;24468;52.128;9.278;2022-09-21T10:52:49;101830.50;;;15.34;100.00
38718;BME280;24468;52.128;9.278;2022-09-21T10:55:18;101825.16;;;16.32;100.00
38718;BME280;24468;52.128;9.278;2022-09-21T10:57:46;101826.03;;;16.51;100.00
38718;BME280;24468;52.128;9.278;2022-09-21T11:00:29;101812.31;;;16.15;100.00
38718;BME280;24468;52.128;9.278;2022-09-21T11:03:05;101820.91;;;16.06;100.00
38718;BME280;24468;52.128;9.278;2022-09-21T11:05:49;101814.59;;;16.62;100.00
38718;BME280;24468;52.128;9.278;2022-09-21T11:08:32;101804.56;;;16.62;100.00
38718;BME280;24468;52.128;9.278;2022-09-21T11:11:42;101801.38;;;17.08;93.94
38718;BME280;24468;52.128;9.278;2022-09-21T11:14:58;101806.88;;;16.70;87.87
38718;BME280;24468;52.128;9.278;2022-09-21T11:18:04;101807.50;;;16.77;78.59
38718;BME280;24468;52.128;9.278;2022-09-21T11:20:47;101803.81;;;16.78;74.58
38718;BME280;24468;52.128;9.278;2022-09-21T11:25:59;101805.72;;;17.29;72.62
38718;BME280;24468;52.128;9.278;2022-09-21T11:29:14;101793.63;;;17.68;71.00
38718;BME280;24468;52.128;9.278;2022-09-21T11:32:38;101798.09;;;17.53;64.64
38718;BME280;24468;52.128;9.278;2022-09-21T11:41:26;101797.69;;;17.26;66.38
38718;BME280;24468;52.128;9.278;2022-09-21T11:44:43;101795.53;;;17.50;64.10
38718;BME280;24468;52.128;9.278;2022-09-21T11:50:17;101790.63;;;17.40;57.16
38718;BME280;24468;52.128;9.278;2022-09-21T11:53:15;101779.16;;;18.33;55.53
38718;BME280;24468;52.128;9.278;2022-09-21T11:56:08;101774.75;;;18.46;57.17
38718;BME280;24468;52.128;9.278;2022-09-21T12:07:05;101767.38;;;18.32;56.35
38718;BME280;24468;52.128;9.278;2022-09-21T12:09:59;101766.44;;;18.63;55.03
38718;BME280;24468;52.128;9.278;2022-09-21T12:12:49;101760.03;;;18.49;54.95
38718;BME280;24468;52.128;9.278;2022-09-21T12:15:40;101756.78;;;18.42;52.33
38718;BME280;24468;52.128;9.278;2022-09-21T12:18:20;101756.84;;;18.09;50.76
38718;BME280;24468;52.128;9.278;2022-09-21T12:24:02;101750.75;;;18.67;52.31
38718;BME280;24468;52.128;9.278;2022-09-21T12:26:35;101749.94;;;18.81;54.16
38718;BME280;24468;52.128;9.278;2022-09-21T12:29:11;101748.00;;;19.13;54.62
38718;BME280;24468;52.128;9.278;2022-09-21T12:32:05;101741.84;;;19.09;50.97
38718;BME280;24468;52.128;9.278;2022-09-21T12:34:43;101741.03;;;18.93;51.16
38718;BME280;24468;52.128;9.278;2022-09-21T12:37:41;101738.25;;;19.09;52.83
38718;BME280;24468;52.128;9.278;2022-09-21T12:40:36;101735.81;;;19.19;50.15
38718;BME280;24468;52.128;9.278;2022-09-21T12:43:15;101737.19;;;19.12;48.28
38718;BME280;24468;52.128;9.278;2022-09-21T12:45:47;101742.72;;;18.80;47.85
38718;BME280;24468;52.128;9.278;2022-09-21T12:48:31;101733.88;;;19.21;45.71
38718;BME280;24468;52.128;9.278;2022-09-21T12:51:30;101732.19;;;19.18;46.61
38718;BME280;24468;52.128;9.278;2022-09-21T12:54:00;101729.13;;;19.08;46.81
38718;BME280;24468;52.128;9.278;2022-09-21T12:59:57;101725.75;;;18.89;45.55
38718;BME280;24468;52.128;9.278;2022-09-21T13:08:09;101719.66;;;19.87;45.18
38718;BME280;24468;52.128;9.278;2022-09-21T13:10:59;101725.34;;;19.84;44.96
38718;BME280;24468;52.128;9.278;2022-09-21T13:13:34;101719.84;;;19.84;46.06
38718;BME280;24468;52.128;9.278;2022-09-21T13:16:05;101719.16;;;19.66;44.90
38718;BME280;24468;52.128;9.278;2022-09-21T13:18:34;101721.78;;;19.39;45.57
38718;BME280;24468;52.128;9.278;2022-09-21T13:21:19;101708.63;;;19.01;45.15
38718;BME280;24468;52.128;9.278;2022-09-21T13:24:02;101711.00;;;19.22;45.17
38718;BME280;24468;52.128;9.278;2022-09-21T13:26:40;101708.00;;;19.55;45.02
38718;BME280;24468;52.128;9.278;2022-09-21T13:32:21;101715.31;;;18.81;43.01
38718;BME280;24468;52.128;9.278;2022-09-21T13:34:47;101715.00;;;18.86;44.84
38718;BME280;24468;52.128;9.278;2022-09-21T13:40:28;101707.63;;;19.90;45.01
38718;BME280;24468;52.128;9.278;2022-09-21T13:42:46;101693.94;;;19.75;44.34
38718;BME280;24468;52.128;9.278;2022-09-21T13:47:45;101701.63;;;19.26;45.09
38718;BME280;24468;52.128;9.278;2022-09-21T13:50:47;101700.25;;;19.33;45.43
38718;BME280;24468;52.128;9.278;2022-09-21T13:53:29;101696.63;;;19.04;47.21
38718;BME280;24468;52.128;9.278;2022-09-21T13:56:15;101701.13;;;18.75;45.85
38718;BME280;24468;52.128;9.278;2022-09-21T13:58:46;101695.53;;;18.14;47.60
38718;BME280;24468;52.128;9.278;2022-09-21T14:01:22;101694.09;;;17.75;47.14
38718;BME280;24468;52.128;9.278;2022-09-21T14:04:03;101699.56;;;18.07;50.59
38718;BME280;24468;52.128;9.278;2022-09-21T14:06:44;101688.66;;;18.07;53.40
38718;BME280;24468;52.128;9.278;2022-09-21T14:09:55;101691.94;;;17.98;55.47
38718;BME280;24468;52.128;9.278;2022-09-21T14:12:25;101695.53;;;17.83;56.47
38718;BME280;24468;52.128;9.278;2022-09-21T14:17:42;101692.09;;;17.95;57.89
38718;BME280;24468;52.128;9.278;2022-09-21T14:20:31;101685.50;;;17.83;57.16
38718;BME280;24468;52.128;9.278;2022-09-21T14:28:45;101687.94;;;17.72;63.91
38718;BME280;24468;52.128;9.278;2022-09-21T14:31:25;101685.69;;;17.80;65.08
38718;BME280;24468;52.128;9.278;2022-09-21T14:33:59;101678.19;;;18.61;60.77
38718;BME280;24468;52.128;9.278;2022-09-21T14:36:45;101670.72;;;18.65;57.55
38718;BME280;24468;52.128;9.278;2022-09-21T14:39:49;101670.69;;;18.35;57.47
38718;BME280;24468;52.128;9.278;2022-09-21T14:42:18;101670.13;;;19.04;57.90
38718;BME280;24468;52.128;9.278;2022-09-21T14:44:46;101675.16;;;19.26;57.12
38718;BME280;24468;52.128;9.278;2022-09-21T14:50:34;101668.53;;;18.40;56.52
38718;BME280;24468;52.128;9.278;2022-09-21T14:53:49;101660.72;;;18.80;59.25
38718;BME280;24468;52.128;9.278;2022-09-21T14:56:35;101667.00;;;18.96;55.88
38718;BME280;24468;52.128;9.278;2022-09-21T14:59:37;101657.13;;;18.63;54.33
38718;BME280;24468;52.128;9.278;2022-09-21T15:02:23;101662.31;;;18.68;58.21
38718;BME280;24468;52.128;9.278;2022-09-21T15:08:07;101660.59;;;19.54;52.30
38718;BME280;24468;52.128;9.278;2022-09-21T15:11:10;101648.81;;;19.95;51.75
38718;BME280;24468;52.128;9.278;2022-09-21T15:14:21;101650.56;;;20.11;51.10
38718;BME280;24468;52.128;9.278;2022-09-21T15:16:51;101650.69;;;19.95;52.71
38718;BME280;24468;52.128;9.278;2022-09-21T15:21:51;101651.16;;;18.87;56.19
38718;BME280;24468;52.128;9.278;2022-09-21T15:24:32;101644.94;;;18.39;58.00
38718;BME280;24468;52.128;9.278;2022-09-21T15:27:13;101648.47;;;18.25;57.55